Hernando Beach, Florida
Current Conditions -  °F | °C
As of 6:53 PM on Monday 24 Nov 2014 (Local Time) from KBKV Reporting Station
Clear Clear  
Wind Chill: 74°   Ceiling: Unl
Heat Index: 74°   Visibility: 10mi
Dew Point: 69°   Wind: 5mph
Humidity: 85%   Direction: 180°S
Pressure: 29.97"   Gusts: NA
Location:  28.4982°N, 82.633°W
Report Text: KBKV 242353Z AUTO 18004KT 10SM CLR 23/21 A2997 RMK AO2 SLP147 T02330206 10300 20228 53013
Loading
Personal Weather Stations






























Interactive Weather Map New forecast layout! Learn more

10-Day Weather Forecast

Advertisements
Track Severe Weather on mobile